sensor_id;sensor_type;location;lat;lon;timestamp;temperature;humidity
6948;DHT22;3513;47.664;9.162;2024-01-25T00:00:53;9.90;99.90
6948;DHT22;3513;47.664;9.162;2024-01-25T00:03:19;9.90;99.90
6948;DHT22;3513;47.664;9.162;2024-01-25T00:05:44;9.80;99.90
6948;DHT22;3513;47.664;9.162;2024-01-25T00:08:10;9.80;99.90
6948;DHT22;3513;47.664;9.162;2024-01-25T00:10:36;9.70;99.90
6948;DHT22;3513;47.664;9.162;2024-01-25T00:13:02;10.20;99.90
6948;DHT22;3513;47.664;9.162;2024-01-25T00:15:27;9.80;99.90
6948;DHT22;3513;47.664;9.162;2024-01-25T00:17:53;9.70;99.90
6948;DHT22;3513;47.664;9.162;2024-01-25T00:20:18;9.80;99.90
6948;DHT22;3513;47.664;9.162;2024-01-25T00:22:44;9.80;99.90
6948;DHT22;3513;47.664;9.162;2024-01-25T00:25:09;9.70;99.90
6948;DHT22;3513;47.664;9.162;2024-01-25T00:27:35;9.80;99.90
6948;DHT22;3513;47.664;9.162;2024-01-25T00:30:01;9.70;99.90
6948;DHT22;3513;47.664;9.162;2024-01-25T00:32:26;9.70;99.90
6948;DHT22;3513;47.664;9.162;2024-01-25T00:34:52;9.70;99.90
6948;DHT22;3513;47.664;9.162;2024-01-25T00:37:18;9.70;99.90
6948;DHT22;3513;47.664;9.162;2024-01-25T00:39:43;9.70;99.90
6948;DHT22;3513;47.664;9.162;2024-01-25T00:42:12;9.60;99.90
6948;DHT22;3513;47.664;9.162;2024-01-25T00:44:39;9.60;99.90
6948;DHT22;3513;47.664;9.162;2024-01-25T00:47:05;9.60;99.90
6948;DHT22;3513;47.664;9.162;2024-01-25T00:49:31;9.60;99.90
6948;DHT22;3513;47.664;9.162;2024-01-25T00:52:00;9.60;99.90
6948;DHT22;3513;47.664;9.162;2024-01-25T00:54:27;9.60;99.90
6948;DHT22;3513;47.664;9.162;2024-01-25T00:56:53;9.50;99.90
6948;DHT22;3513;47.664;9.162;2024-01-25T00:59:19;9.50;99.90
6948;DHT22;3513;47.664;9.162;2024-01-25T01:01:47;9.50;99.90
6948;DHT22;3513;47.664;9.162;2024-01-25T01:04:14;9.50;99.90
6948;DHT22;3513;47.664;9.162;2024-01-25T01:06:39;9.50;99.90
6948;DHT22;3513;47.664;9.162;2024-01-25T01:09:05;9.40;99.90
6948;DHT22;3513;47.664;9.162;2024-01-25T01:11:31;9.40;99.90
6948;DHT22;3513;47.664;9.162;2024-01-25T01:13:56;9.30;99.90
6948;DHT22;3513;47.664;9.162;2024-01-25T01:16:22;9.40;99.90
6948;DHT22;3513;47.664;9.162;2024-01-25T01:18:47;9.50;99.90
6948;DHT22;3513;47.664;9.162;2024-01-25T01:21:13;9.50;99.90
6948;DHT22;3513;47.664;9.162;2024-01-25T01:23:39;9.60;99.90
6948;DHT22;3513;47.664;9.162;2024-01-25T01:26:04;9.70;99.90
6948;DHT22;3513;47.664;9.162;2024-01-25T01:28:30;9.80;99.90
6948;DHT22;3513;47.664;9.162;2024-01-25T01:30:56;9.80;99.90
6948;DHT22;3513;47.664;9.162;2024-01-25T01:33:22;9.90;99.90
6948;DHT22;3513;47.664;9.162;2024-01-25T01:35:47;9.90;99.90
6948;DHT22;3513;47.664;9.162;2024-01-25T01:38:13;9.90;99.90
6948;DHT22;3513;47.664;9.162;2024-01-25T01:40:38;9.90;99.90
6948;DHT22;3513;47.664;9.162;2024-01-25T01:43:04;9.90;99.90
6948;DHT22;3513;47.664;9.162;2024-01-25T01:45:29;9.80;99.90
6948;DHT22;3513;47.664;9.162;2024-01-25T01:47:56;9.80;99.90
6948;DHT22;3513;47.664;9.162;2024-01-25T01:50:22;9.80;99.90
6948;DHT22;3513;47.664;9.162;2024-01-25T01:52:49;9.80;99.90
6948;DHT22;3513;47.664;9.162;2024-01-25T01:55:16;9.80;99.90
6948;DHT22;3513;47.664;9.162;2024-01-25T01:57:43;9.80;99.90
6948;DHT22;3513;47.664;9.162;2024-01-25T02:00:09;9.80;99.90
6948;DHT22;3513;47.664;9.162;2024-01-25T02:02:35;9.80;99.90
6948;DHT22;3513;47.664;9.162;2024-01-25T02:05:01;9.80;99.90
6948;DHT22;3513;47.664;9.162;2024-01-25T02:07:28;9.70;99.90
6948;DHT22;3513;47.664;9.162;2024-01-25T02:09:53;9.70;99.90
6948;DHT22;3513;47.664;9.162;2024-01-25T02:12:19;9.70;99.90
6948;DHT22;3513;47.664;9.162;2024-01-25T02:14:45;9.70;99.90
6948;DHT22;3513;47.664;9.162;2024-01-25T02:17:11;9.70;99.90
6948;DHT22;3513;47.664;9.162;2024-01-25T02:19:36;9.70;99.90
6948;DHT22;3513;47.664;9.162;2024-01-25T02:22:04;9.70;99.90
6948;DHT22;3513;47.664;9.162;2024-01-25T02:24:30;9.70;99.90
6948;DHT22;3513;47.664;9.162;2024-01-25T02:26:56;9.70;99.90
6948;DHT22;3513;47.664;9.162;2024-01-25T02:29:21;9.70;99.90
6948;DHT22;3513;47.664;9.162;2024-01-25T02:31:47;9.70;99.90
6948;DHT22;3513;47.664;9.162;2024-01-25T02:34:13;9.70;99.90
6948;DHT22;3513;47.664;9.162;2024-01-25T02:36:38;9.70;99.90
6948;DHT22;3513;47.664;9.162;2024-01-25T02:39:04;9.60;99.90
6948;DHT22;3513;47.664;9.162;2024-01-25T02:41:32;9.60;99.90
6948;DHT22;3513;47.664;9.162;2024-01-25T02:43:59;9.60;99.90
6948;DHT22;3513;47.664;9.162;2024-01-25T02:46:25;9.70;99.90
6948;DHT22;3513;47.664;9.162;2024-01-25T02:48:50;9.60;99.90
6948;DHT22;3513;47.664;9.162;2024-01-25T02:51:16;9.60;99.90
6948;DHT22;3513;47.664;9.162;2024-01-25T02:53:41;9.60;99.90
6948;DHT22;3513;47.664;9.162;2024-01-25T02:56:07;9.60;99.90
6948;DHT22;3513;47.664;9.162;2024-01-25T02:58:33;9.60;99.90
6948;DHT22;3513;47.664;9.162;2024-01-25T03:00:58;9.50;99.90
6948;DHT22;3513;47.664;9.162;2024-01-25T03:03:24;9.40;99.90
6948;DHT22;3513;47.664;9.162;2024-01-25T03:05:51;9.30;99.90
6948;DHT22;3513;47.664;9.162;2024-01-25T03:08:17;9.30;99.90
6948;DHT22;3513;47.664;9.162;2024-01-25T03:10:42;9.40;99.90
6948;DHT22;3513;47.664;9.162;2024-01-25T03:13:08;9.30;99.90
6948;DHT22;3513;47.664;9.162;2024-01-25T03:15:34;9.30;99.90
6948;DHT22;3513;47.664;9.162;2024-01-25T03:17:59;9.30;99.90
6948;DHT22;3513;47.664;9.162;2024-01-25T03:20:25;9.30;99.90
6948;DHT22;3513;47.664;9.162;2024-01-25T03:22:50;9.30;99.90
6948;DHT22;3513;47.664;9.162;2024-01-25T03:25:16;9.30;99.90
6948;DHT22;3513;47.664;9.162;2024-01-25T03:27:41;9.30;99.90
6948;DHT22;3513;47.664;9.162;2024-01-25T03:30:07;9.20;99.90
6948;DHT22;3513;47.664;9.162;2024-01-25T03:32:34;9.20;99.90
6948;DHT22;3513;47.664;9.162;2024-01-25T03:34:59;9.10;99.90
6948;DHT22;3513;47.664;9.162;2024-01-25T03:37:25;9.00;99.90
6948;DHT22;3513;47.664;9.162;2024-01-25T03:39:51;9.00;99.90
6948;DHT22;3513;47.664;9.162;2024-01-25T03:42:16;9.00;99.90
6948;DHT22;3513;47.664;9.162;2024-01-25T03:44:42;8.90;99.90
6948;DHT22;3513;47.664;9.162;2024-01-25T03:47:08;8.90;99.90
6948;DHT22;3513;47.664;9.162;2024-01-25T03:49:34;8.80;99.90
6948;DHT22;3513;47.664;9.162;2024-01-25T03:51:59;8.80;99.90
6948;DHT22;3513;47.664;9.162;2024-01-25T03:54:25;8.80;99.90
6948;DHT22;3513;47.664;9.162;2024-01-25T03:56:51;8.80;99.90
6948;DHT22;3513;47.664;9.162;2024-01-25T03:59:16;8.70;99.90
6948;DHT22;3513;47.664;9.162;2024-01-25T04:01:45;8.70;99.90
6948;DHT22;3513;47.664;9.162;2024-01-25T04:04:12;8.70;99.90
6948;DHT22;3513;47.664;9.162;2024-01-25T04:06:41;8.70;99.90
6948;DHT22;3513;47.664;9.162;2024-01-25T04:09:08;8.70;99.90
6948;DHT22;3513;47.664;9.162;2024-01-25T04:11:34;8.60;99.90
6948;DHT22;3513;47.664;9.162;2024-01-25T04:13:59;8.60;99.90
6948;DHT22;3513;47.664;9.162;2024-01-25T04:16:26;8.60;99.90
6948;DHT22;3513;47.664;9.162;2024-01-25T04:18:51;8.70;99.90
6948;DHT22;3513;47.664;9.162;2024-01-25T04:21:17;8.70;99.90
6948;DHT22;3513;47.664;9.162;2024-01-25T04:23:42;8.70;99.90
6948;DHT22;3513;47.664;9.162;2024-01-25T04:26:08;8.70;99.90
6948;DHT22;3513;47.664;9.162;2024-01-25T04:28:34;8.70;99.90
6948;DHT22;3513;47.664;9.162;2024-01-25T04:30:59;8.60;99.90
6948;DHT22;3513;47.664;9.162;2024-01-25T04:33:25;8.60;99.90
6948;DHT22;3513;47.664;9.162;2024-01-25T04:35:50;8.60;99.90
6948;DHT22;3513;47.664;9.162;2024-01-25T04:38:16;8.60;99.90
6948;DHT22;3513;47.664;9.162;2024-01-25T04:40:41;8.70;99.90
6948;DHT22;3513;47.664;9.162;2024-01-25T04:43:07;8.70;99.90
6948;DHT22;3513;47.664;9.162;2024-01-25T04:45:32;8.60;99.90
6948;DHT22;3513;47.664;9.162;2024-01-25T04:47:58;8.60;99.90
6948;DHT22;3513;47.664;9.162;2024-01-25T04:50:24;8.60;99.90
6948;DHT22;3513;47.664;9.162;2024-01-25T04:52:49;8.70;99.90
6948;DHT22;3513;47.664;9.162;2024-01-25T04:55:15;8.80;99.90
6948;DHT22;3513;47.664;9.162;2024-01-25T04:57:40;8.80;99.90
6948;DHT22;3513;47.664;9.162;2024-01-25T05:00:08;8.80;99.90
6948;DHT22;3513;47.664;9.162;2024-01-25T05:02:33;8.80;99.90
6948;DHT22;3513;47.664;9.162;2024-01-25T05:04:59;8.80;99.90
6948;DHT22;3513;47.664;9.162;2024-01-25T05:07:24;8.90;99.90
6948;DHT22;3513;47.664;9.162;2024-01-25T05:09:50;8.80;99.90
6948;DHT22;3513;47.664;9.162;2024-01-25T05:12:16;8.90;99.90
6948;DHT22;3513;47.664;9.162;2024-01-25T05:14:41;8.90;99.90
6948;DHT22;3513;47.664;9.162;2024-01-25T05:17:07;8.90;99.90
6948;DHT22;3513;47.664;9.162;2024-01-25T05:19:33;8.80;99.90
6948;DHT22;3513;47.664;9.162;2024-01-25T05:21:58;8.80;99.90
6948;DHT22;3513;47.664;9.162;2024-01-25T05:24:24;8.80;99.90
6948;DHT22;3513;47.664;9.162;2024-01-25T05:26:49;8.70;99.90
6948;DHT22;3513;47.664;9.162;2024-01-25T05:29:15;8.70;99.90
6948;DHT22;3513;47.664;9.162;2024-01-25T05:31:41;8.70;99.90
6948;DHT22;3513;47.664;9.162;2024-01-25T05:34:07;8.60;99.90
6948;DHT22;3513;47.664;9.162;2024-01-25T05:36:33;8.60;99.90
6948;DHT22;3513;47.664;9.162;2024-01-25T05:38:58;8.60;99.90
6948;DHT22;3513;47.664;9.162;2024-01-25T05:41:24;8.60;99.90
6948;DHT22;3513;47.664;9.162;2024-01-25T05:43:50;8.60;99.90
6948;DHT22;3513;47.664;9.162;2024-01-25T05:46:16;8.60;99.90
6948;DHT22;3513;47.664;9.162;2024-01-25T05:48:42;8.60;99.90
6948;DHT22;3513;47.664;9.162;2024-01-25T05:51:07;8.60;99.90
6948;DHT22;3513;47.664;9.162;2024-01-25T05:53:33;8.60;99.90
6948;DHT22;3513;47.664;9.162;2024-01-25T05:55:58;8.60;99.90
6948;DHT22;3513;47.664;9.162;2024-01-25T05:58:24;8.70;99.90
6948;DHT22;3513;47.664;9.162;2024-01-25T06:00:50;8.70;99.90
6948;DHT22;3513;47.664;9.162;2024-01-25T06:03:15;8.70;99.90
6948;DHT22;3513;47.664;9.162;2024-01-25T06:05:41;8.70;99.90
6948;DHT22;3513;47.664;9.162;2024-01-25T06:08:06;8.70;99.90
6948;DHT22;3513;47.664;9.162;2024-01-25T06:10:32;8.70;99.90
6948;DHT22;3513;47.664;9.162;2024-01-25T06:12:58;8.70;99.90
6948;DHT22;3513;47.664;9.162;2024-01-25T06:15:23;8.70;99.90
6948;DHT22;3513;47.664;9.162;2024-01-25T06:17:49;8.70;99.90
6948;DHT22;3513;47.664;9.162;2024-01-25T06:20:15;8.80;99.90
6948;DHT22;3513;47.664;9.162;2024-01-25T06:22:41;8.90;99.90
6948;DHT22;3513;47.664;9.162;2024-01-25T06:25:06;8.90;99.90
6948;DHT22;3513;47.664;9.162;2024-01-25T06:27:33;9.00;99.90
6948;DHT22;3513;47.664;9.162;2024-01-25T06:29:58;9.10;99.90
6948;DHT22;3513;47.664;9.162;2024-01-25T06:32:24;9.10;99.90
6948;DHT22;3513;47.664;9.162;2024-01-25T06:34:49;9.20;99.90
6948;DHT22;3513;47.664;9.162;2024-01-25T06:37:15;9.10;99.90
6948;DHT22;3513;47.664;9.162;2024-01-25T06:39:41;9.10;99.90
6948;DHT22;3513;47.664;9.162;2024-01-25T06:42:06;9.00;99.90
6948;DHT22;3513;47.664;9.162;2024-01-25T06:44:32;9.00;99.90
6948;DHT22;3513;47.664;9.162;2024-01-25T06:46:58;9.00;99.90
6948;DHT22;3513;47.664;9.162;2024-01-25T06:49:23;9.00;99.90
6948;DHT22;3513;47.664;9.162;2024-01-25T06:51:49;8.90;99.90
6948;DHT22;3513;47.664;9.162;2024-01-25T06:54:15;8.80;99.90
6948;DHT22;3513;47.664;9.162;2024-01-25T06:56:40;8.70;99.90
6948;DHT22;3513;47.664;9.162;2024-01-25T06:59:06;8.60;99.90
6948;DHT22;3513;47.664;9.162;2024-01-25T07:01:31;8.60;99.90
6948;DHT22;3513;47.664;9.162;2024-01-25T07:03:58;8.60;99.90
6948;DHT22;3513;47.664;9.162;2024-01-25T07:06:23;8.60;99.90
6948;DHT22;3513;47.664;9.162;2024-01-25T07:08:49;8.60;99.90
6948;DHT22;3513;47.664;9.162;2024-01-25T07:11:15;8.60;99.90
6948;DHT22;3513;47.664;9.162;2024-01-25T07:13:42;8.60;99.90
6948;DHT22;3513;47.664;9.162;2024-01-25T07:16:07;8.60;99.90
6948;DHT22;3513;47.664;9.162;2024-01-25T07:18:33;8.60;99.90
6948;DHT22;3513;47.664;9.162;2024-01-25T07:20:59;8.50;99.90
6948;DHT22;3513;47.664;9.162;2024-01-25T07:23:24;8.50;99.90
6948;DHT22;3513;47.664;9.162;2024-01-25T07:25:52;8.50;99.90
6948;DHT22;3513;47.664;9.162;2024-01-25T07:28:19;8.50;99.90
6948;DHT22;3513;47.664;9.162;2024-01-25T07:30:47;8.50;99.90
6948;DHT22;3513;47.664;9.162;2024-01-25T07:33:12;8.50;99.90
6948;DHT22;3513;47.664;9.162;2024-01-25T07:35:38;8.50;99.90
6948;DHT22;3513;47.664;9.162;2024-01-25T07:38:07;8.60;99.90
6948;DHT22;3513;47.664;9.162;2024-01-25T07:40:33;8.60;99.90
6948;DHT22;3513;47.664;9.162;2024-01-25T07:42:58;8.70;99.90
6948;DHT22;3513;47.664;9.162;2024-01-25T07:45:24;8.60;99.90
6948;DHT22;3513;47.664;9.162;2024-01-25T07:47:50;8.60;99.90
6948;DHT22;3513;47.664;9.162;2024-01-25T07:50:16;8.60;99.90
6948;DHT22;3513;47.664;9.162;2024-01-25T07:52:42;8.60;99.90
6948;DHT22;3513;47.664;9.162;2024-01-25T07:55:08;8.60;99.90
6948;DHT22;3513;47.664;9.162;2024-01-25T07:57:33;8.60;99.90
6948;DHT22;3513;47.664;9.162;2024-01-25T07:59:59;8.60;99.90
6948;DHT22;3513;47.664;9.162;2024-01-25T08:02:24;8.70;99.90
6948;DHT22;3513;47.664;9.162;2024-01-25T08:04:50;8.60;99.90
6948;DHT22;3513;47.664;9.162;2024-01-25T08:07:16;8.70;99.90
6948;DHT22;3513;47.664;9.162;2024-01-25T08:09:41;8.70;99.90
6948;DHT22;3513;47.664;9.162;2024-01-25T08:12:08;8.70;99.90
6948;DHT22;3513;47.664;9.162;2024-01-25T08:14:33;8.80;99.90
6948;DHT22;3513;47.664;9.162;2024-01-25T08:16:59;8.80;99.90
6948;DHT22;3513;47.664;9.162;2024-01-25T08:19:25;8.80;99.90
6948;DHT22;3513;47.664;9.162;2024-01-25T08:21:51;8.80;99.90
6948;DHT22;3513;47.664;9.162;2024-01-25T08:24:16;8.90;99.90
6948;DHT22;3513;47.664;9.162;2024-01-25T08:26:42;8.90;99.90
6948;DHT22;3513;47.664;9.162;2024-01-25T08:29:07;9.00;99.90
6948;DHT22;3513;47.664;9.162;2024-01-25T08:31:33;9.00;99.90
6948;DHT22;3513;47.664;9.162;2024-01-25T08:33:58;9.00;99.90
6948;DHT22;3513;47.664;9.162;2024-01-25T08:36:24;9.10;99.90
6948;DHT22;3513;47.664;9.162;2024-01-25T08:38:50;9.00;99.90
6948;DHT22;3513;47.664;9.162;2024-01-25T08:41:15;9.10;99.90
6948;DHT22;3513;47.664;9.162;2024-01-25T08:43:42;9.10;99.90
6948;DHT22;3513;47.664;9.162;2024-01-25T08:46:08;9.10;99.90
6948;DHT22;3513;47.664;9.162;2024-01-25T08:48:34;9.10;99.90
6948;DHT22;3513;47.664;9.162;2024-01-25T08:50:59;9.10;99.90
6948;DHT22;3513;47.664;9.162;2024-01-25T08:53:25;9.10;99.90
6948;DHT22;3513;47.664;9.162;2024-01-25T08:55:54;9.20;99.90
6948;DHT22;3513;47.664;9.162;2024-01-25T08:58:20;9.20;99.90
6948;DHT22;3513;47.664;9.162;2024-01-25T09:00:46;9.20;99.90
6948;DHT22;3513;47.664;9.162;2024-01-25T09:03:11;9.30;99.90
6948;DHT22;3513;47.664;9.162;2024-01-25T09:05:37;9.30;99.90
6948;DHT22;3513;47.664;9.162;2024-01-25T09:08:06;9.40;99.90
6948;DHT22;3513;47.664;9.162;2024-01-25T09:10:32;9.40;99.90
6948;DHT22;3513;47.664;9.162;2024-01-25T09:12:57;9.50;99.90
6948;DHT22;3513;47.664;9.162;2024-01-25T09:15:23;9.60;99.90
6948;DHT22;3513;47.664;9.162;2024-01-25T09:17:49;9.50;99.90
6948;DHT22;3513;47.664;9.162;2024-01-25T09:20:14;9.50;99.90
6948;DHT22;3513;47.664;9.162;2024-01-25T09:22:41;9.50;99.90
6948;DHT22;3513;47.664;9.162;2024-01-25T09:25:06;9.50;99.90
6948;DHT22;3513;47.664;9.162;2024-01-25T09:27:32;9.50;99.90
6948;DHT22;3513;47.664;9.162;2024-01-25T09:29:58;9.50;99.90
6948;DHT22;3513;47.664;9.162;2024-01-25T09:32:24;9.50;99.90
6948;DHT22;3513;47.664;9.162;2024-01-25T09:34:49;9.60;99.90
6948;DHT22;3513;47.664;9.162;2024-01-25T09:37:15;9.60;99.90
6948;DHT22;3513;47.664;9.162;2024-01-25T09:39:40;9.70;99.90
6948;DHT22;3513;47.664;9.162;2024-01-25T09:42:07;9.80;99.90
6948;DHT22;3513;47.664;9.162;2024-01-25T09:44:33;9.90;99.90
6948;DHT22;3513;47.664;9.162;2024-01-25T09:46:59;9.90;99.90
6948;DHT22;3513;47.664;9.162;2024-01-25T09:49:28;10.00;99.90
6948;DHT22;3513;47.664;9.162;2024-01-25T09:51:54;10.00;99.90
6948;DHT22;3513;47.664;9.162;2024-01-25T09:54:21;10.10;99.90
6948;DHT22;3513;47.664;9.162;2024-01-25T09:56:50;10.20;99.90
6948;DHT22;3513;47.664;9.162;2024-01-25T09:59:16;10.20;99.90
6948;DHT22;3513;47.664;9.162;2024-01-25T10:01:42;10.30;99.90
6948;DHT22;3513;47.664;9.162;2024-01-25T10:04:11;10.30;99.90
6948;DHT22;3513;47.664;9.162;2024-01-25T10:06:37;10.30;99.90
6948;DHT22;3513;47.664;9.162;2024-01-25T10:09:04;10.30;99.90
6948;DHT22;3513;47.664;9.162;2024-01-25T10:11:30;10.40;99.90
6948;DHT22;3513;47.664;9.162;2024-01-25T10:14:01;10.30;99.90
6948;DHT22;3513;47.664;9.162;2024-01-25T10:16:26;10.40;99.90
6948;DHT22;3513;47.664;9.162;2024-01-25T10:18:52;10.40;99.90
6948;DHT22;3513;47.664;9.162;2024-01-25T10:21:18;10.50;99.90
6948;DHT22;3513;47.664;9.162;2024-01-25T10:23:44;10.50;99.90
6948;DHT22;3513;47.664;9.162;2024-01-25T10:26:13;10.40;99.90
6948;DHT22;3513;47.664;9.162;2024-01-25T10:28:40;10.50;99.90
6948;DHT22;3513;47.664;9.162;2024-01-25T10:31:05;10.40;99.90
6948;DHT22;3513;47.664;9.162;2024-01-25T10:33:31;10.50;99.90
6948;DHT22;3513;47.664;9.162;2024-01-25T10:36:00;10.50;99.90
6948;DHT22;3513;47.664;9.162;2024-01-25T10:38:32;10.50;99.90
6948;DHT22;3513;47.664;9.162;2024-01-25T10:41:03;10.50;99.90
6948;DHT22;3513;47.664;9.162;2024-01-25T10:43:29;10.60;99.90
6948;DHT22;3513;47.664;9.162;2024-01-25T10:46:01;10.60;99.90
6948;DHT22;3513;47.664;9.162;2024-01-25T10:48:27;10.60;99.90
6948;DHT22;3513;47.664;9.162;2024-01-25T10:50:55;10.70;99.90
6948;DHT22;3513;47.664;9.162;2024-01-25T10:53:21;10.70;99.90
6948;DHT22;3513;47.664;9.162;2024-01-25T10:55:47;10.80;99.90
6948;DHT22;3513;47.664;9.162;2024-01-25T10:58:16;10.90;99.90
6948;DHT22;3513;47.664;9.162;2024-01-25T11:00:52;11.00;99.90
6948;DHT22;3513;47.664;9.162;2024-01-25T11:03:25;11.10;99.90
6948;DHT22;3513;47.664;9.162;2024-01-25T11:05:51;11.10;99.90
6948;DHT22;3513;47.664;9.162;2024-01-25T11:08:19;11.20;99.90
6948;DHT22;3513;47.664;9.162;2024-01-25T11:10:50;11.20;99.90
6948;DHT22;3513;47.664;9.162;2024-01-25T11:13:16;11.20;99.90
6948;DHT22;3513;47.664;9.162;2024-01-25T11:15:41;11.20;99.90
6948;DHT22;3513;47.664;9.162;2024-01-25T11:18:08;11.30;99.90
6948;DHT22;3513;47.664;9.162;2024-01-25T11:20:35;11.20;99.90
6948;DHT22;3513;47.664;9.162;2024-01-25T11:23:02;11.10;99.90
6948;DHT22;3513;47.664;9.162;2024-01-25T11:25:33;11.00;99.90
6948;DHT22;3513;47.664;9.162;2024-01-25T11:28:00;11.00;99.90
6948;DHT22;3513;47.664;9.162;2024-01-25T11:30:27;11.00;99.90
6948;DHT22;3513;47.664;9.162;2024-01-25T11:32:53;11.00;99.90
6948;DHT22;3513;47.664;9.162;2024-01-25T11:35:18;11.00;99.90
6948;DHT22;3513;47.664;9.162;2024-01-25T11:37:46;10.90;99.90
6948;DHT22;3513;47.664;9.162;2024-01-25T11:40:12;11.00;99.90
6948;DHT22;3513;47.664;9.162;2024-01-25T11:42:39;10.90;99.90
6948;DHT22;3513;47.664;9.162;2024-01-25T11:45:08;11.00;99.90
6948;DHT22;3513;47.664;9.162;2024-01-25T11:47:35;10.90;99.90
6948;DHT22;3513;47.664;9.162;2024-01-25T11:50:01;11.00;99.90
6948;DHT22;3513;47.664;9.162;2024-01-25T11:52:27;10.90;99.90
6948;DHT22;3513;47.664;9.162;2024-01-25T11:54:53;10.90;99.90
6948;DHT22;3513;47.664;9.162;2024-01-25T11:57:19;10.90;99.90
6948;DHT22;3513;47.664;9.162;2024-01-25T11:59:45;11.00;99.90
6948;DHT22;3513;47.664;9.162;2024-01-25T12:02:13;11.00;99.90
6948;DHT22;3513;47.664;9.162;2024-01-25T12:04:39;11.00;99.90
6948;DHT22;3513;47.664;9.162;2024-01-25T12:07:05;11.10;99.90
6948;DHT22;3513;47.664;9.162;2024-01-25T12:09:31;11.00;99.90
6948;DHT22;3513;47.664;9.162;2024-01-25T12:11:56;11.00;99.90
6948;DHT22;3513;47.664;9.162;2024-01-25T12:14:24;11.00;99.90
6948;DHT22;3513;47.664;9.162;2024-01-25T12:16:49;10.90;99.90
6948;DHT22;3513;47.664;9.162;2024-01-25T12:19:15;10.90;99.90
6948;DHT22;3513;47.664;9.162;2024-01-25T12:21:44;10.80;99.90
6948;DHT22;3513;47.664;9.162;2024-01-25T12:24:10;10.80;99.90
6948;DHT22;3513;47.664;9.162;2024-01-25T12:26:36;10.80;99.90
6948;DHT22;3513;47.664;9.162;2024-01-25T12:29:02;10.80;99.90
6948;DHT22;3513;47.664;9.162;2024-01-25T12:31:28;10.80;99.90
6948;DHT22;3513;47.664;9.162;2024-01-25T12:33:54;10.80;99.90
6948;DHT22;3513;47.664;9.162;2024-01-25T12:36:20;10.80;99.90
6948;DHT22;3513;47.664;9.162;2024-01-25T12:38:45;10.80;99.90
6948;DHT22;3513;47.664;9.162;2024-01-25T12:41:11;10.70;99.90
6948;DHT22;3513;47.664;9.162;2024-01-25T12:43:37;10.70;99.90
6948;DHT22;3513;47.664;9.162;2024-01-25T12:46:03;10.80;99.90
6948;DHT22;3513;47.664;9.162;2024-01-25T12:48:28;10.70;99.90
6948;DHT22;3513;47.664;9.162;2024-01-25T12:50:54;10.70;99.90
6948;DHT22;3513;47.664;9.162;2024-01-25T12:53:19;10.70;99.90
6948;DHT22;3513;47.664;9.162;2024-01-25T12:55:48;10.70;99.90
6948;DHT22;3513;47.664;9.162;2024-01-25T12:58:14;10.80;99.90
6948;DHT22;3513;47.664;9.162;2024-01-25T13:00:39;10.70;99.90
6948;DHT22;3513;47.664;9.162;2024-01-25T13:03:05;10.70;99.90
6948;DHT22;3513;47.664;9.162;2024-01-25T13:05:31;10.60;99.90
6948;DHT22;3513;47.664;9.162;2024-01-25T13:08:00;10.60;99.90
6948;DHT22;3513;47.664;9.162;2024-01-25T13:10:27;10.60;99.90
6948;DHT22;3513;47.664;9.162;2024-01-25T13:12:52;10.60;99.90
6948;DHT22;3513;47.664;9.162;2024-01-25T13:15:18;10.50;99.90
6948;DHT22;3513;47.664;9.162;2024-01-25T13:17:44;10.50;99.90
6948;DHT22;3513;47.664;9.162;2024-01-25T13:20:10;10.50;99.90
6948;DHT22;3513;47.664;9.162;2024-01-25T13:22:36;10.50;99.90
6948;DHT22;3513;47.664;9.162;2024-01-25T13:25:02;10.40;99.90
6948;DHT22;3513;47.664;9.162;2024-01-25T13:27:28;10.40;99.90
6948;DHT22;3513;47.664;9.162;2024-01-25T13:29:54;10.30;99.90
6948;DHT22;3513;47.664;9.162;2024-01-25T13:32:20;10.30;99.90
6948;DHT22;3513;47.664;9.162;2024-01-25T13:34:46;10.20;99.90
6948;DHT22;3513;47.664;9.162;2024-01-25T13:37:12;10.10;99.90
6948;DHT22;3513;47.664;9.162;2024-01-25T13:39:37;10.10;99.90
6948;DHT22;3513;47.664;9.162;2024-01-25T13:42:03;10.00;99.90
6948;DHT22;3513;47.664;9.162;2024-01-25T13:44:28;10.00;99.90
6948;DHT22;3513;47.664;9.162;2024-01-25T13:46:54;9.90;99.90
6948;DHT22;3513;47.664;9.162;2024-01-25T13:49:21;9.80;99.90
6948;DHT22;3513;47.664;9.162;2024-01-25T13:51:47;9.70;99.90
6948;DHT22;3513;47.664;9.162;2024-01-25T13:54:12;9.60;99.90
6948;DHT22;3513;47.664;9.162;2024-01-25T13:56:38;9.70;99.90
6948;DHT22;3513;47.664;9.162;2024-01-25T13:59:05;9.60;99.90
6948;DHT22;3513;47.664;9.162;2024-01-25T14:01:31;9.60;99.90
6948;DHT22;3513;47.664;9.162;2024-01-25T14:03:57;9.50;99.90
6948;DHT22;3513;47.664;9.162;2024-01-25T14:06:22;9.50;99.90
6948;DHT22;3513;47.664;9.162;2024-01-25T14:08:48;9.40;99.90
6948;DHT22;3513;47.664;9.162;2024-01-25T14:11:14;9.40;99.90
6948;DHT22;3513;47.664;9.162;2024-01-25T14:13:39;9.50;99.90
6948;DHT22;3513;47.664;9.162;2024-01-25T14:16:05;9.40;99.90
6948;DHT22;3513;47.664;9.162;2024-01-25T14:18:36;9.30;99.90
6948;DHT22;3513;47.664;9.162;2024-01-25T14:21:02;9.30;99.90
6948;DHT22;3513;47.664;9.162;2024-01-25T14:23:28;9.30;99.90
6948;DHT22;3513;47.664;9.162;2024-01-25T14:25:54;9.30;99.90
6948;DHT22;3513;47.664;9.162;2024-01-25T14:28:19;9.30;99.90
6948;DHT22;3513;47.664;9.162;2024-01-25T14:30:45;9.30;99.90
6948;DHT22;3513;47.664;9.162;2024-01-25T14:33:12;9.20;99.90
6948;DHT22;3513;47.664;9.162;2024-01-25T14:35:37;9.20;99.90
6948;DHT22;3513;47.664;9.162;2024-01-25T14:38:03;9.00;99.90
6948;DHT22;3513;47.664;9.162;2024-01-25T14:40:28;8.60;99.90
6948;DHT22;3513;47.664;9.162;2024-01-25T14:42:54;8.90;99.90
6948;DHT22;3513;47.664;9.162;2024-01-25T14:45:20;8.90;99.90
6948;DHT22;3513;47.664;9.162;2024-01-25T14:47:45;9.00;99.90
6948;DHT22;3513;47.664;9.162;2024-01-25T14:50:11;8.90;99.90
6948;DHT22;3513;47.664;9.162;2024-01-25T14:52:36;8.90;99.90
6948;DHT22;3513;47.664;9.162;2024-01-25T14:55:05;8.90;99.90
6948;DHT22;3513;47.664;9.162;2024-01-25T14:57:31;8.90;99.90
6948;DHT22;3513;47.664;9.162;2024-01-25T14:59:57;8.90;99.90
6948;DHT22;3513;47.664;9.162;2024-01-25T15:02:22;8.90;99.90
6948;DHT22;3513;47.664;9.162;2024-01-25T15:04:48;8.80;99.90
6948;DHT22;3513;47.664;9.162;2024-01-25T15:07:13;8.80;99.90
6948;DHT22;3513;47.664;9.162;2024-01-25T15:09:40;8.80;99.90
6948;DHT22;3513;47.664;9.162;2024-01-25T15:12:07;8.70;99.90
6948;DHT22;3513;47.664;9.162;2024-01-25T15:14:33;8.70;99.90
6948;DHT22;3513;47.664;9.162;2024-01-25T15:16:59;8.80;99.90
6948;DHT22;3513;47.664;9.162;2024-01-25T15:19:24;8.80;99.90
6948;DHT22;3513;47.664;9.162;2024-01-25T15:21:50;8.70;99.90
6948;DHT22;3513;47.664;9.162;2024-01-25T15:24:15;8.70;99.90
6948;DHT22;3513;47.664;9.162;2024-01-25T15:26:42;8.80;99.90
6948;DHT22;3513;47.664;9.162;2024-01-25T15:29:08;8.80;99.90
6948;DHT22;3513;47.664;9.162;2024-01-25T15:31:33;8.80;99.90
6948;DHT22;3513;47.664;9.162;2024-01-25T15:33:59;8.80;99.90
6948;DHT22;3513;47.664;9.162;2024-01-25T15:36:25;8.70;99.90
6948;DHT22;3513;47.664;9.162;2024-01-25T15:38:50;8.70;99.90
6948;DHT22;3513;47.664;9.162;2024-01-25T15:41:16;8.70;99.90
6948;DHT22;3513;47.664;9.162;2024-01-25T15:43:44;8.80;99.90
6948;DHT22;3513;47.664;9.162;2024-01-25T15:46:09;8.70;99.90
6948;DHT22;3513;47.664;9.162;2024-01-25T15:48:36;8.70;99.90
6948;DHT22;3513;47.664;9.162;2024-01-25T15:51:01;8.70;99.90
6948;DHT22;3513;47.664;9.162;2024-01-25T15:53:27;8.60;99.90
6948;DHT22;3513;47.664;9.162;2024-01-25T15:55:53;8.60;99.90
6948;DHT22;3513;47.664;9.162;2024-01-25T15:58:18;8.60;99.90
6948;DHT22;3513;47.664;9.162;2024-01-25T16:00:44;8.60;99.90
6948;DHT22;3513;47.664;9.162;2024-01-25T16:03:09;8.60;99.90
6948;DHT22;3513;47.664;9.162;2024-01-25T16:05:35;8.60;99.90